Terminal Aerodrome Forecast
Issued by NWS

Current Version | Previous Version | Graphics & Text | Print | Product List | Glossary On
Versions: 1 2 3 4 5 6 7 8 9 10 11 12 13 14 15 16 17 18 19 20 21 22 23 24
843
FTUS41 KRLX 201739
TAFCKB
TAF
KCKB 201739Z 2018/2118 19006KT P6SM -RA BKN015 OVC020
     FM201900 23005KT P6SM SCT015 BKN025
     FM202300 00000KT P6SM BKN050
     FM210800 19003KT 4SM BR BKN050
     FM211300 VRB03KT P6SM BKN100=

USA.gov is the U.S. government's official web portal to all federal, state and local government web resources and services.